createdAt,value
2022-11-26T00:00:05.285Z,9.757532
2022-11-26T00:01:05.241Z,9.757478
2022-11-26T00:02:06.269Z,9.757410
2022-11-26T00:03:05.385Z,9.757345
2022-11-26T00:04:05.218Z,9.757321
2022-11-26T00:05:05.252Z,9.757314
2022-11-26T00:06:05.215Z,9.757501
2022-11-26T00:07:05.201Z,9.757554
2022-11-26T00:08:05.196Z,9.757520
2022-11-26T00:09:05.184Z,9.757474
2022-11-26T00:10:05.206Z,9.757356
2022-11-26T00:11:05.167Z,9.757287
2022-11-26T00:12:05.165Z,9.757427
2022-11-26T00:13:05.150Z,9.757547
2022-11-26T00:14:05.142Z,9.757478
2022-11-26T00:15:05.166Z,9.757495
2022-11-26T00:16:05.215Z,9.757522
2022-11-26T00:17:05.173Z,9.757707
2022-11-26T00:18:05.126Z,9.757695
2022-11-26T00:19:05.119Z,9.757584
2022-11-26T00:20:05.355Z,9.757539
2022-11-26T00:21:05.094Z,9.757586
2022-11-26T00:22:05.085Z,9.757535
2022-11-26T00:23:05.069Z,9.757538
2022-11-26T00:24:05.064Z,9.757475
2022-11-26T00:25:05.058Z,9.757555
2022-11-26T00:26:05.072Z,9.757517
2022-11-26T00:27:06.043Z,9.757525
2022-11-26T00:28:05.030Z,9.757537
2022-11-26T00:29:05.022Z,9.757459
2022-11-26T00:30:05.017Z,9.757842
2022-11-26T00:31:05.042Z,9.757897
2022-11-26T00:32:05.036Z,9.757704
2022-11-26T00:33:04.988Z,9.757771
2022-11-26T00:34:04.983Z,9.757792
2022-11-26T00:35:04.966Z,9.757891
2022-11-26T00:36:04.992Z,9.757882
2022-11-26T00:37:04.956Z,9.757859
2022-11-26T00:38:04.948Z,9.757750
2022-11-26T00:39:04.938Z,9.757646
2022-11-26T00:40:04.943Z,9.757578
2022-11-26T00:41:04.953Z,9.757555
2022-11-26T00:42:04.913Z,9.757549
2022-11-26T00:43:04.928Z,9.757560
2022-11-26T00:44:04.901Z,9.757601
2022-11-26T00:45:04.886Z,9.757612
2022-11-26T00:46:05.114Z,9.757579
2022-11-26T00:47:04.876Z,9.757645
2022-11-26T00:48:04.868Z,9.757652
2022-11-26T00:49:04.856Z,9.757577
2022-11-26T00:50:04.857Z,9.757542
2022-11-26T00:51:04.870Z,9.757547
2022-11-26T00:52:04.829Z,9.757534
2022-11-26T00:53:04.833Z,9.757506
2022-11-26T00:54:04.828Z,9.757474
2022-11-26T00:55:04.815Z,9.757535
2022-11-26T00:56:04.829Z,9.757633
2022-11-26T00:57:04.796Z,9.757594
2022-11-26T00:58:04.785Z,9.757587
2022-11-26T00:59:04.775Z,9.757529
2022-11-26T01:00:04.777Z,9.757540
2022-11-26T01:01:04.809Z,9.757559
2022-11-26T01:02:04.838Z,9.757575
2022-11-26T01:03:04.747Z,9.757564
2022-11-26T01:04:04.736Z,9.757520
2022-11-26T01:05:04.724Z,9.757413
2022-11-26T01:06:04.750Z,9.757450
2022-11-26T01:07:04.704Z,9.757478
2022-11-26T01:08:04.699Z,9.757637
2022-11-26T01:09:04.682Z,9.757707
2022-11-26T01:10:05.677Z,9.757696
2022-11-26T01:11:04.714Z,9.757816
2022-11-26T01:12:04.674Z,9.757651
2022-11-26T01:13:04.655Z,9.757626
2022-11-26T01:14:04.668Z,9.757659
2022-11-26T01:15:04.631Z,9.757509
2022-11-26T01:16:04.764Z,9.757586
2022-11-26T01:17:04.622Z,9.757518
2022-11-26T01:18:04.617Z,9.757474
2022-11-26T01:19:04.684Z,9.757545
2022-11-26T01:20:04.602Z,9.757473
2022-11-26T01:21:04.614Z,9.757460
2022-11-26T01:22:04.579Z,9.757550
2022-11-26T01:23:04.576Z,9.757375
2022-11-26T01:24:04.579Z,9.757437
2022-11-26T01:25:04.564Z,9.757338
2022-11-26T01:26:06.608Z,9.757420
2022-11-26T01:27:05.540Z,9.757603
2022-11-26T01:28:04.533Z,9.757551
2022-11-26T01:29:04.529Z,9.757360
2022-11-26T01:30:04.514Z,9.757538
2022-11-26T01:31:04.536Z,9.757455
2022-11-26T01:32:04.581Z,9.757255
2022-11-26T01:33:04.506Z,9.757415
2022-11-26T01:34:04.490Z,9.757472
2022-11-26T01:35:04.478Z,9.757509
2022-11-26T01:36:04.490Z,9.757442
2022-11-26T01:37:04.460Z,9.757317
2022-11-26T01:38:04.463Z,9.757225
2022-11-26T01:39:04.445Z,9.757491
2022-11-26T01:40:04.433Z,9.757403
2022-11-26T01:41:04.479Z,9.757354
2022-11-26T01:42:04.405Z,9.757456
2022-11-26T01:43:04.411Z,9.757368
2022-11-26T01:44:04.397Z,9.757337
2022-11-26T01:45:04.383Z,9.757448
2022-11-26T01:46:04.428Z,9.757454
2022-11-26T01:47:04.396Z,9.757550
2022-11-26T01:48:04.359Z,9.757615
2022-11-26T01:49:04.357Z,9.757446
2022-11-26T01:50:04.344Z,9.757486
2022-11-26T01:51:04.344Z,9.757664
2022-11-26T01:52:04.455Z,9.757557
2022-11-26T01:53:04.328Z,9.757492
2022-11-26T01:54:04.312Z,9.757523
2022-11-26T01:55:04.305Z,9.757594
2022-11-26T01:56:04.295Z,9.757447
2022-11-26T01:57:04.312Z,9.757519
2022-11-26T01:58:04.273Z,9.757552
2022-11-26T01:59:29.934Z,9.757565
2022-11-26T02:00:04.275Z,9.757516
2022-11-26T02:01:04.309Z,9.757590
2022-11-26T02:02:04.307Z,9.757627
2022-11-26T02:03:04.236Z,9.757504
2022-11-26T02:04:04.230Z,9.757484
2022-11-26T02:05:04.215Z,9.757553
2022-11-26T02:06:04.209Z,9.757564
2022-11-26T02:07:04.232Z,9.757593
2022-11-26T02:08:04.188Z,9.757585
2022-11-26T02:09:04.184Z,9.757604
2022-11-26T02:10:04.172Z,9.757509
2022-11-26T02:11:04.161Z,9.757502
2022-11-26T02:12:04.189Z,9.757531
2022-11-26T02:13:04.146Z,9.757602
2022-11-26T02:14:04.137Z,9.757712
2022-11-26T02:15:04.135Z,9.758095
2022-11-26T02:16:04.214Z,9.758174
2022-11-26T02:17:04.168Z,9.758081
2022-11-26T02:18:04.112Z,9.757719
2022-11-26T02:19:04.098Z,9.757917
2022-11-26T02:20:04.096Z,9.757927
2022-11-26T02:21:04.077Z,9.757895
2022-11-26T02:22:05.110Z,9.757870
2022-11-26T02:23:04.071Z,9.757726
2022-11-26T02:24:04.057Z,9.757771
2022-11-26T02:25:04.050Z,9.757787
2022-11-26T02:26:04.044Z,9.757561
2022-11-26T02:27:04.076Z,9.757414
2022-11-26T02:28:04.030Z,9.757639
2022-11-26T02:29:04.020Z,9.757781
2022-11-26T02:30:04.014Z,9.757767
2022-11-26T02:31:04.006Z,9.757683
2022-11-26T02:32:04.073Z,9.757643
2022-11-26T02:33:03.980Z,9.757508
2022-11-26T02:34:03.980Z,9.757506
2022-11-26T02:35:03.973Z,9.757599
2022-11-26T02:36:03.962Z,9.757592
2022-11-26T02:37:03.982Z,9.757611
2022-11-26T02:38:03.947Z,9.757692
2022-11-26T02:39:03.943Z,9.757651
2022-11-26T02:40:03.925Z,9.757620
2022-11-26T02:41:03.921Z,9.757621
2022-11-26T02:42:03.940Z,9.757694
2022-11-26T02:43:03.900Z,9.757627
2022-11-26T02:44:03.897Z,9.757840
2022-11-26T02:45:03.880Z,9.757792
2022-11-26T02:46:03.951Z,9.757738
2022-11-26T02:47:03.903Z,9.757687
2022-11-26T02:48:03.867Z,9.757558
2022-11-26T02:49:03.851Z,9.757311
2022-11-26T02:50:03.843Z,9.757463
2022-11-26T02:51:03.844Z,9.757646
2022-11-26T02:52:03.862Z,9.757724
2022-11-26T02:53:03.818Z,9.757732
2022-11-26T02:54:03.816Z,9.757865
2022-11-26T02:55:03.814Z,9.757778
2022-11-26T02:56:03.794Z,9.757688
2022-11-26T02:57:03.822Z,9.757923
2022-11-26T02:58:03.782Z,9.757930
2022-11-26T02:59:03.788Z,9.757713
2022-11-26T03:00:03.764Z,9.757797
2022-11-26T03:01:03.845Z,9.757828
2022-11-26T03:02:03.747Z,9.757773
2022-11-26T03:03:03.770Z,9.758012
2022-11-26T03:04:03.772Z,9.757623
2022-11-26T03:05:03.714Z,9.757439
2022-11-26T03:06:03.710Z,9.757435
2022-11-26T03:07:03.704Z,9.757464
2022-11-26T03:08:03.727Z,9.757394
2022-11-26T03:09:03.704Z,9.757450
2022-11-26T03:10:03.679Z,9.757480
2022-11-26T03:11:03.673Z,9.757487
2022-11-26T03:12:03.770Z,9.757402
2022-11-26T03:13:03.685Z,9.757470
2022-11-26T03:14:03.647Z,9.757460
2022-11-26T03:15:03.636Z,9.757518
2022-11-26T03:16:03.711Z,9.757474
2022-11-26T03:17:03.620Z,9.757459
2022-11-26T03:18:03.646Z,9.757485
2022-11-26T03:19:03.600Z,9.757450
2022-11-26T03:20:03.599Z,9.757465
2022-11-26T03:21:03.589Z,9.757501
2022-11-26T03:22:03.579Z,9.757400
2022-11-26T03:23:03.598Z,9.757455
2022-11-26T03:24:03.574Z,9.757488
2022-11-26T03:25:03.561Z,9.757590
2022-11-26T03:26:03.538Z,9.757514
2022-11-26T03:27:03.549Z,9.757545
2022-11-26T03:28:03.579Z,9.757462
2022-11-26T03:29:03.523Z,9.757493
2022-11-26T03:30:03.517Z,9.757480
2022-11-26T03:31:03.502Z,9.757492
2022-11-26T03:32:03.577Z,9.757569
2022-11-26T03:33:03.521Z,9.757468
2022-11-26T03:34:03.485Z,9.757429
2022-11-26T03:35:03.472Z,9.757539
2022-11-26T03:48:48.882Z,9.757470
2022-11-26T03:49:48.870Z,9.757504
2022-11-26T03:50:48.866Z,9.757533
2022-11-26T03:51:48.848Z,9.757562
2022-11-26T03:52:48.877Z,9.757376
2022-11-26T03:53:48.842Z,9.757405
2022-11-26T03:54:48.823Z,9.757368
2022-11-26T03:55:48.818Z,9.757364
2022-11-26T03:56:48.813Z,9.757644
2022-11-26T03:57:48.849Z,9.757589
2022-11-26T03:58:48.794Z,9.757598
2022-11-26T03:59:48.792Z,9.757410
2022-11-26T04:00:48.783Z,9.757534
2022-11-26T04:01:48.825Z,9.757536
2022-11-26T04:02:48.889Z,9.757508
2022-11-26T04:03:48.771Z,9.757421
2022-11-26T04:04:48.746Z,9.757580
2022-11-26T04:05:48.730Z,9.757573
2022-11-26T04:06:49.738Z,9.757614
2022-11-26T04:07:48.804Z,9.757691
2022-11-26T04:08:48.714Z,9.757668
2022-11-26T04:09:48.709Z,9.757500
2022-11-26T04:10:48.700Z,9.757276
2022-11-26T04:11:48.693Z,9.757408
2022-11-26T04:12:48.684Z,9.757323
2022-11-26T04:13:48.703Z,9.757198
2022-11-26T04:14:48.663Z,9.757355
2022-11-26T04:15:48.654Z,9.757589
2022-11-26T04:16:48.683Z,9.757593
2022-11-26T04:17:48.640Z,9.757466
2022-11-26T04:18:48.658Z,9.757495
2022-11-26T04:19:48.627Z,9.757594
2022-11-26T04:20:52.750Z,9.757622
2022-11-26T04:21:49.609Z,9.757698
2022-11-26T04:22:48.599Z,9.757635
2022-11-26T04:23:48.620Z,9.757581
2022-11-26T04:24:48.587Z,9.757515
2022-11-26T04:25:48.570Z,9.757408
2022-11-26T04:26:48.581Z,9.757417
2022-11-26T04:27:48.560Z,9.757565
2022-11-26T04:28:48.568Z,9.757610
2022-11-26T04:29:48.540Z,9.757666
2022-11-26T04:30:48.537Z,9.757593
2022-11-26T04:31:48.594Z,9.757557
2022-11-26T04:32:48.512Z,9.757511
2022-11-26T04:33:48.542Z,9.757608
2022-11-26T04:34:48.497Z,9.757594
2022-11-26T04:35:48.488Z,9.757629
2022-11-26T04:36:48.484Z,9.757618
2022-11-26T04:37:48.472Z,9.757710
2022-11-26T04:38:48.491Z,9.757604
2022-11-26T04:39:48.458Z,9.757530
2022-11-26T04:40:48.457Z,9.757502
2022-11-26T04:41:48.438Z,9.757545
2022-11-26T04:42:48.432Z,9.757567
2022-11-26T04:43:48.455Z,9.757550
2022-11-26T04:44:48.421Z,9.757554
2022-11-26T04:45:48.426Z,9.757592
2022-11-26T04:46:48.389Z,9.757537
2022-11-26T04:47:48.384Z,9.757598
2022-11-26T04:48:48.407Z,9.757536
2022-11-26T04:49:48.370Z,9.757605
2022-11-26T04:50:48.365Z,9.757557
2022-11-26T04:51:48.367Z,9.757568
2022-11-26T04:52:48.370Z,9.757615
2022-11-26T04:53:48.360Z,9.757671
2022-11-26T04:54:48.326Z,9.757565
2022-11-26T04:55:48.314Z,9.757513
2022-11-26T04:56:48.314Z,9.757557
2022-11-26T04:57:48.298Z,9.757547
2022-11-26T04:58:48.319Z,9.757543
2022-11-26T04:59:48.286Z,9.757567
2022-11-26T05:00:51.063Z,9.757595
2022-11-26T05:01:49.265Z,9.757574
2022-11-26T05:02:48.275Z,9.757476
2022-11-26T05:03:48.273Z,9.757377
2022-11-26T05:04:48.242Z,9.757467
2022-11-26T05:05:48.240Z,9.757507
2022-11-26T05:06:48.220Z,9.757528
2022-11-26T05:07:48.241Z,9.757494
2022-11-26T05:08:48.233Z,9.757475
2022-11-26T05:09:48.196Z,9.757532
2022-11-26T05:10:48.176Z,9.757512
2022-11-26T05:11:48.184Z,9.757574
2022-11-26T05:12:48.169Z,9.757528
2022-11-26T05:13:48.188Z,9.757467
2022-11-26T05:14:48.145Z,9.757504
2022-11-26T05:15:48.139Z,9.757565
2022-11-26T05:16:48.278Z,9.757568
2022-11-26T05:17:48.127Z,9.757559
2022-11-26T05:18:48.140Z,9.757538
2022-11-26T05:19:48.108Z,9.757494
2022-11-26T05:20:48.096Z,9.757491
2022-11-26T05:21:48.087Z,9.757504
2022-11-26T05:22:48.078Z,9.757739
2022-11-26T05:23:48.106Z,9.757580
2022-11-26T05:24:48.067Z,9.757472
2022-11-26T05:25:48.057Z,9.757442
2022-11-26T05:26:51.221Z,9.757591
2022-11-26T05:27:49.037Z,9.757556
2022-11-26T05:28:48.061Z,9.757574
2022-11-26T05:29:48.018Z,9.757549
2022-11-26T05:30:48.020Z,9.757605
2022-11-26T05:31:48.034Z,9.757612
2022-11-26T05:32:47.990Z,9.757867
2022-11-26T05:33:48.012Z,9.757586
2022-11-26T05:34:47.981Z,9.757603
2022-11-26T05:35:47.967Z,9.757621
2022-11-26T05:36:47.966Z,9.757803
2022-11-26T05:37:47.951Z,9.757589
2022-11-26T05:38:47.980Z,9.757622
2022-11-26T05:39:47.933Z,9.757646
2022-11-26T05:40:47.930Z,9.757742
2022-11-26T05:41:47.916Z,9.757831
2022-11-26T05:42:47.900Z,9.757586
2022-11-26T05:43:47.928Z,9.757651
2022-11-26T05:44:47.878Z,9.757389
2022-11-26T05:45:48.921Z,9.757291
2022-11-26T05:46:47.874Z,9.757623
2022-11-26T05:47:47.875Z,9.757865
2022-11-26T05:48:47.889Z,9.757725
2022-11-26T05:49:47.861Z,9.757361
2022-11-26T05:50:53.049Z,9.757360
2022-11-26T05:51:49.831Z,9.757408
2022-11-26T05:52:47.865Z,9.757542
2022-11-26T05:53:47.845Z,9.758654
2022-11-26T05:54:47.816Z,9.757941
2022-11-26T05:55:47.793Z,9.757955
2022-11-26T05:56:47.794Z,9.757745
2022-11-26T05:57:47.786Z,9.757673
2022-11-26T05:58:47.807Z,9.757632
2022-11-26T05:59:47.777Z,9.757380
2022-11-26T06:00:47.762Z,9.757420
2022-11-26T06:01:47.805Z,9.757460
2022-11-26T06:02:47.823Z,9.757576
2022-11-26T06:03:47.854Z,9.757610
2022-11-26T06:04:47.728Z,9.757461
2022-11-26T06:05:48.723Z,9.757673
2022-11-26T06:06:47.719Z,9.757691
2022-11-26T06:07:47.762Z,9.757454
2022-11-26T06:08:47.727Z,9.757080
2022-11-26T06:09:47.691Z,9.757170
2022-11-26T06:10:47.688Z,9.757412
2022-11-26T06:11:47.671Z,9.757485
2022-11-26T06:12:47.672Z,9.757335
2022-11-26T06:13:47.686Z,9.757255
2022-11-26T06:14:47.918Z,9.757467
2022-11-26T06:15:47.646Z,9.757663
2022-11-26T06:16:47.667Z,9.757450
2022-11-26T06:17:47.632Z,9.757605
2022-11-26T06:18:47.637Z,9.757395
2022-11-26T06:19:47.607Z,9.757446
2022-11-26T06:20:47.604Z,9.757332
2022-11-26T06:21:47.589Z,9.757372
2022-11-26T06:22:47.586Z,9.757396
2022-11-26T06:23:54.509Z,9.757447
2022-11-26T06:24:49.568Z,9.757510
2022-11-26T06:25:47.550Z,9.757361
2022-11-26T06:26:47.551Z,9.757420
2022-11-26T06:27:47.544Z,9.757449
2022-11-26T06:28:47.558Z,9.757410
2022-11-26T06:29:47.522Z,9.757422
2022-11-26T06:30:47.520Z,9.757580
2022-11-26T06:31:47.634Z,9.757421
2022-11-26T06:32:47.503Z,9.757363
2022-11-26T06:33:47.491Z,9.757530
2022-11-26T06:34:52.583Z,9.757563
2022-11-26T06:35:49.478Z,9.757667
2022-11-26T06:36:47.469Z,9.757588
2022-11-26T06:37:47.468Z,9.757442
2022-11-26T06:38:47.450Z,9.757324
2022-11-26T06:39:47.472Z,9.757265
2022-11-26T06:40:47.431Z,9.757379
2022-11-26T06:41:47.429Z,9.757456
2022-11-26T06:42:47.427Z,9.757516
2022-11-26T06:43:47.405Z,9.757445
2022-11-26T06:44:47.434Z,9.757458
2022-11-26T06:45:47.473Z,9.757492
2022-11-26T06:46:47.420Z,9.757579
2022-11-26T06:47:47.382Z,9.757440
2022-11-26T06:48:47.372Z,9.757492
2022-11-26T06:49:47.400Z,9.757500
2022-11-26T06:50:47.358Z,9.757546
2022-11-26T06:51:47.345Z,9.757450
2022-11-26T06:52:47.854Z,9.757421
2022-11-26T06:53:47.335Z,9.757439
2022-11-26T06:54:47.347Z,9.757515
2022-11-26T06:55:47.320Z,9.757474
2022-11-26T06:56:47.302Z,9.757419
2022-11-26T06:57:47.306Z,9.757420
2022-11-26T06:58:47.298Z,9.757412
2022-11-26T06:59:47.307Z,9.757399
2022-11-26T07:00:48.278Z,9.757360
2022-11-26T07:01:47.326Z,9.757424
2022-11-26T07:02:47.297Z,9.757521
2022-11-26T07:03:47.245Z,9.757617
2022-11-26T07:04:47.281Z,9.757413
2022-11-26T07:05:47.249Z,9.757530
2022-11-26T07:06:47.235Z,9.757571
2022-11-26T07:07:47.338Z,9.757442
2022-11-26T07:08:47.218Z,9.757560
2022-11-26T07:09:47.243Z,9.757531
2022-11-26T07:10:49.236Z,9.757570
2022-11-26T07:11:48.180Z,9.757467
2022-11-26T07:12:47.180Z,9.757451
2022-11-26T07:13:47.181Z,9.757545
2022-11-26T07:14:47.178Z,9.757477
2022-11-26T07:15:47.257Z,9.757480
2022-11-26T07:16:47.137Z,9.757422
2022-11-26T07:17:47.142Z,9.757442
2022-11-26T07:18:47.131Z,9.757557
2022-11-26T07:19:47.141Z,9.757437
2022-11-26T07:20:47.105Z,9.757481
2022-11-26T07:21:47.112Z,9.757358
2022-11-26T07:22:47.096Z,9.757392
2022-11-26T07:23:47.081Z,9.757511
2022-11-26T07:24:47.346Z,9.757496
2022-11-26T07:26:01.582Z,9.757406
2022-11-26T07:26:47.049Z,9.757356
2022-11-26T07:27:47.047Z,9.757312
2022-11-26T07:28:47.043Z,9.757411
2022-11-26T07:29:47.059Z,9.757457
2022-11-26T07:30:47.022Z,9.757323
2022-11-26T07:31:47.079Z,9.757606
2022-11-26T07:32:46.999Z,9.757820
2022-11-26T07:33:46.995Z,9.757811
2022-11-26T07:34:47.020Z,9.757737
2022-11-26T07:35:46.981Z,9.757661
2022-11-26T07:36:46.974Z,9.757463
2022-11-26T07:37:46.967Z,9.757516
2022-11-26T07:38:46.951Z,9.757606
2022-11-26T07:39:46.981Z,9.757543
2022-11-26T07:40:46.951Z,9.757542
2022-11-26T07:41:46.925Z,9.757506
2022-11-26T07:42:51.841Z,9.757493
2022-11-26T07:43:48.900Z,9.757382
2022-11-26T07:44:47.925Z,9.757518
2022-11-26T07:45:46.933Z,9.757477
2022-11-26T07:46:46.884Z,9.757429
2022-11-26T07:47:46.881Z,9.757379
2022-11-26T07:48:46.870Z,9.757629
2022-11-26T07:49:46.891Z,9.757614
2022-11-26T07:50:46.855Z,9.757528
2022-11-26T07:51:46.849Z,9.757494
2022-11-26T07:52:46.859Z,9.757573
2022-11-26T07:53:46.859Z,9.757573
2022-11-26T07:54:46.850Z,9.757610
2022-11-26T07:55:46.810Z,9.757434
2022-11-26T07:56:46.804Z,9.757683
2022-11-26T07:57:46.798Z,9.757525
2022-11-26T07:58:46.791Z,9.757576
2022-11-26T07:59:46.807Z,9.757453
2022-11-26T08:00:49.714Z,9.757615
2022-11-26T08:01:47.797Z,9.757586
2022-11-26T08:02:46.778Z,9.757560
2022-11-26T08:03:46.751Z,9.757520
2022-11-26T08:04:46.764Z,9.757460
2022-11-26T08:05:46.729Z,9.757509
2022-11-26T08:06:46.726Z,9.757474
2022-11-26T08:07:46.782Z,9.757443
2022-11-26T08:08:46.702Z,9.757472
2022-11-26T08:09:46.729Z,9.757403
2022-11-26T08:10:46.691Z,9.757442
2022-11-26T08:11:46.682Z,9.757503
2022-11-26T08:12:46.671Z,9.757499
2022-11-26T08:13:46.665Z,9.757485
2022-11-26T08:14:46.711Z,9.757526
2022-11-26T08:15:46.647Z,9.757469
2022-11-26T08:16:46.706Z,9.757433
2022-11-26T08:17:46.626Z,9.757457
2022-11-26T08:18:46.610Z,9.757457
2022-11-26T08:19:46.638Z,9.757406
2022-11-26T08:20:46.602Z,9.757471
2022-11-26T08:21:46.585Z,9.757456
2022-11-26T08:22:46.589Z,9.757480
2022-11-26T08:23:46.574Z,9.757502
2022-11-26T08:24:46.584Z,9.757504
2022-11-26T08:26:14.341Z,9.757536
2022-11-26T08:26:48.547Z,9.757475
2022-11-26T08:27:46.540Z,9.757565
2022-11-26T08:28:46.527Z,9.757491
2022-11-26T08:29:46.550Z,9.757400
2022-11-26T08:30:46.512Z,9.757536
2022-11-26T08:31:46.905Z,9.757552
2022-11-26T08:32:46.489Z,9.757461
2022-11-26T08:33:46.483Z,9.757487
2022-11-26T08:34:46.505Z,9.757579
2022-11-26T08:36:08.150Z,9.757464
2022-11-26T08:36:48.458Z,9.757439
2022-11-26T08:37:46.451Z,9.757437
2022-11-26T08:38:47.444Z,9.757499
2022-11-26T08:39:46.467Z,9.757486
2022-11-26T08:40:46.427Z,9.757547
2022-11-26T08:41:51.608Z,9.757494
2022-11-26T08:42:48.404Z,9.757401
2022-11-26T08:44:48.426Z,9.757482
2022-11-26T08:45:46.456Z,9.757599
2022-11-26T08:46:46.392Z,9.757604
2022-11-26T08:47:46.367Z,9.757528
2022-11-26T08:48:46.360Z,9.757463
2022-11-26T08:49:46.392Z,9.757495
2022-11-26T08:50:46.347Z,9.757538
2022-11-26T08:51:46.346Z,9.757525
2022-11-26T08:52:46.327Z,9.757521
2022-11-26T08:53:46.317Z,9.757593
2022-11-26T08:54:46.662Z,9.757467
2022-11-26T08:55:59.608Z,9.757600
2022-11-26T08:56:48.289Z,9.757637
2022-11-26T08:57:46.287Z,9.757604
2022-11-26T08:58:46.271Z,9.757523
2022-11-26T08:59:46.302Z,9.757465
2022-11-26T09:00:46.252Z,9.757474
2022-11-26T09:01:46.326Z,9.757518
2022-11-26T09:02:46.271Z,9.757605
2022-11-26T09:03:46.233Z,9.757542
2022-11-26T09:04:46.263Z,9.757544
2022-11-26T09:05:46.228Z,9.757468
2022-11-26T09:06:46.209Z,9.757498
2022-11-26T09:07:49.056Z,9.757549
2022-11-26T09:08:47.192Z,9.757513
2022-11-26T09:09:46.178Z,9.757506
2022-11-26T09:10:46.204Z,9.757562
2022-11-26T09:11:46.178Z,9.757437
2022-11-26T09:12:46.171Z,9.757388
2022-11-26T09:13:46.145Z,9.757416
2022-11-26T09:14:46.170Z,9.757461
2022-11-26T09:15:46.174Z,9.757416
2022-11-26T09:16:46.192Z,9.757498
2022-11-26T09:17:46.113Z,9.757433
2022-11-26T09:18:46.117Z,9.757413
2022-11-26T09:19:46.109Z,9.757384
2022-11-26T09:20:46.317Z,9.757526
2022-11-26T09:21:46.092Z,9.757519
2022-11-26T09:22:46.080Z,9.757467
2022-11-26T09:23:46.074Z,9.757430
2022-11-26T09:24:46.062Z,9.757365
2022-11-26T09:25:46.244Z,9.757423
2022-11-26T09:26:47.032Z,9.757394
2022-11-26T09:27:47.034Z,9.757339
2022-11-26T09:28:46.025Z,9.757420
2022-11-26T09:29:46.024Z,9.757337
2022-11-26T09:30:46.051Z,9.757384
2022-11-26T09:32:15.429Z,9.757374
2022-11-26T09:33:34.459Z,9.757397
2022-11-26T09:33:45.982Z,9.757386
2022-11-26T09:34:45.977Z,9.757432
2022-11-26T09:35:45.997Z,9.757218
2022-11-26T09:36:46.963Z,9.757081
2022-11-26T09:37:51.226Z,9.757257
2022-11-26T09:38:47.956Z,9.757566
2022-11-26T09:39:45.938Z,9.757446
2022-11-26T09:40:45.959Z,9.757362
2022-11-26T09:41:45.914Z,9.757338
2022-11-26T09:42:45.905Z,9.757600
2022-11-26T09:43:47.296Z,9.757382
2022-11-26T09:44:45.891Z,9.757337
2022-11-26T09:45:45.975Z,9.757399
2022-11-26T09:47:10.494Z,9.757464
2022-11-26T09:47:47.862Z,9.757448
2022-11-26T09:48:45.859Z,9.757402
2022-11-26T09:49:45.850Z,9.757405
2022-11-26T09:50:45.871Z,9.757294
2022-11-26T09:51:45.831Z,9.757372
2022-11-26T09:52:45.828Z,9.757403
2022-11-26T09:53:45.809Z,9.757334
2022-11-26T09:54:45.814Z,9.757408
2022-11-26T09:55:45.829Z,9.757310
2022-11-26T09:56:45.791Z,9.757390
2022-11-26T09:57:45.779Z,9.757421
2022-11-26T09:58:45.774Z,9.757353
2022-11-26T09:59:45.770Z,9.757426
2022-11-26T10:00:45.836Z,9.757403
2022-11-26T10:01:45.838Z,9.757402
2022-11-26T10:02:45.804Z,9.757325
2022-11-26T10:03:45.730Z,9.757457
2022-11-26T10:04:45.721Z,9.757292
2022-11-26T10:05:45.750Z,9.757294
2022-11-26T10:06:45.703Z,9.757389
2022-11-26T10:07:45.802Z,9.757389
2022-11-26T10:08:45.690Z,9.757338
2022-11-26T10:09:45.677Z,9.757378
2022-11-26T10:10:45.712Z,9.757408
2022-11-26T10:11:45.673Z,9.757251
2022-11-26T10:13:10.736Z,9.757207
2022-11-26T10:13:47.668Z,9.757298
2022-11-26T10:14:45.636Z,9.757335
2022-11-26T10:15:45.659Z,9.757418
2022-11-26T10:16:45.678Z,9.757422
2022-11-26T10:17:45.621Z,9.757408
2022-11-26T10:18:45.604Z,9.757338
2022-11-26T10:19:45.595Z,9.757353
2022-11-26T10:20:45.630Z,9.757472
2022-11-26T10:21:58.612Z,9.757434
2022-11-26T10:22:50.490Z,9.757384
2022-11-26T10:23:46.569Z,9.757278
2022-11-26T10:24:45.566Z,9.757369
2022-11-26T10:25:45.745Z,9.757257
2022-11-26T10:26:45.543Z,9.757513
2022-11-26T10:27:45.545Z,9.757443
2022-11-26T10:28:45.541Z,9.757270
2022-11-26T10:29:45.522Z,9.757522
2022-11-26T10:30:45.543Z,9.757362
2022-11-26T10:31:45.603Z,9.757436
2022-11-26T10:32:45.491Z,9.757344
2022-11-26T10:33:46.490Z,9.757455
2022-11-26T10:34:45.936Z,9.757393
2022-11-26T10:35:45.475Z,9.757312
2022-11-26T10:36:45.494Z,9.757372
2022-11-26T10:37:45.454Z,9.757397
2022-11-26T10:38:45.446Z,9.757388
2022-11-26T10:39:45.431Z,9.757360
2022-11-26T10:40:45.430Z,9.757462
2022-11-26T10:41:45.448Z,9.757497
2022-11-26T10:42:45.403Z,9.757297
2022-11-26T10:43:45.402Z,9.757307
2022-11-26T10:44:45.395Z,9.757401
2022-11-26T10:45:45.393Z,9.757399
2022-11-26T10:46:45.451Z,9.757360
2022-11-26T10:47:45.363Z,9.757373
2022-11-26T10:48:45.358Z,9.757370
2022-11-26T10:49:45.349Z,9.757523
2022-11-26T10:50:47.846Z,9.757476
2022-11-26T10:51:46.359Z,9.757423
2022-11-26T10:52:45.329Z,9.757412
2022-11-26T10:53:45.311Z,9.757441
2022-11-26T10:54:45.302Z,9.757401
2022-11-26T10:55:45.308Z,9.757417
2022-11-26T10:56:45.348Z,9.757471
2022-11-26T10:57:45.281Z,9.757522
2022-11-26T10:58:45.277Z,9.757496
2022-11-26T10:59:45.264Z,9.757398
2022-11-26T11:00:45.280Z,9.757386
2022-11-26T11:01:45.308Z,9.757488
2022-11-26T11:02:45.273Z,9.757527
2022-11-26T11:04:07.167Z,9.757543
2022-11-26T11:04:47.517Z,9.757561
2022-11-26T11:05:45.213Z,9.757458
2022-11-26T11:06:45.223Z,9.757411
2022-11-26T11:07:45.279Z,9.757456
2022-11-26T11:08:45.183Z,9.757475
2022-11-26T11:09:45.179Z,9.757448
2022-11-26T11:10:45.166Z,9.757499
2022-11-26T11:11:45.193Z,9.757453
2022-11-26T11:12:45.145Z,9.757508
2022-11-26T11:13:45.171Z,9.757445
2022-11-26T11:14:45.667Z,9.757390
2022-11-26T11:15:45.125Z,9.757523
2022-11-26T11:16:45.167Z,9.757547
2022-11-26T11:17:45.126Z,9.757537
2022-11-26T11:18:45.107Z,9.757544
2022-11-26T11:19:45.092Z,9.757533
2022-11-26T11:20:45.085Z,9.757506
2022-11-26T11:21:48.158Z,9.757412
2022-11-26T11:22:46.108Z,9.757561
2022-11-26T11:24:09.692Z,9.757621
2022-11-26T11:24:47.061Z,9.757591
2022-11-26T11:25:45.040Z,9.757536
2022-11-26T11:26:45.033Z,9.757301
2022-11-26T11:27:45.054Z,9.757483
2022-11-26T11:28:45.010Z,9.757415
2022-11-26T11:29:45.006Z,9.757504
2022-11-26T11:30:44.998Z,9.757450
2022-11-26T11:31:45.055Z,9.757559
2022-11-26T11:32:45.010Z,9.757488
2022-11-26T11:33:44.982Z,9.757506
2022-11-26T11:34:44.976Z,9.757516
2022-11-26T11:35:44.954Z,9.757450
2022-11-26T11:36:44.945Z,9.757477
2022-11-26T11:37:44.983Z,9.757404
2022-11-26T11:38:44.931Z,9.757361
2022-11-26T11:39:44.922Z,9.757627
2022-11-26T11:40:44.928Z,9.757564
2022-11-26T11:41:44.912Z,9.757715
2022-11-26T11:42:44.930Z,9.757519
2022-11-26T11:43:44.889Z,9.757446
2022-11-26T11:44:44.878Z,9.757423
2022-11-26T11:45:49.981Z,9.757560
2022-11-26T11:46:46.867Z,9.757284
2022-11-26T11:47:44.876Z,9.757303
2022-11-26T11:48:44.848Z,9.757544
2022-11-26T11:49:44.821Z,9.757470
2022-11-26T11:50:45.822Z,9.757508
2022-11-26T11:51:44.817Z,9.757542
2022-11-26T11:52:44.837Z,9.757544
2022-11-26T11:53:44.798Z,9.757578
2022-11-26T11:54:44.789Z,9.757602
2022-11-26T11:55:44.783Z,9.757525
2022-11-26T11:56:44.778Z,9.757464
2022-11-26T11:57:44.796Z,9.757565